createdAt,value
2023-02-27T00:01:35.181Z,97.98
2023-02-27T00:04:03.598Z,95.06
2023-02-27T00:06:31.918Z,91.91
2023-02-27T00:09:00.437Z,91.75
2023-02-27T00:11:29.212Z,90.70
2023-02-27T00:13:57.700Z,92.16
2023-02-27T00:16:26.025Z,92.48
2023-02-27T00:18:57.229Z,94.18
2023-02-27T00:21:25.938Z,95.86
2023-02-27T00:23:54.373Z,96.23
2023-02-27T00:26:22.648Z,97.97
2023-02-27T00:28:50.903Z,99.12
2023-02-27T00:31:19.271Z,100.00
2023-02-27T00:33:47.568Z,100.00
2023-02-27T00:36:17.382Z,100.00
2023-02-27T00:38:45.706Z,100.00
2023-02-27T00:41:13.975Z,100.00
2023-02-27T00:43:42.270Z,100.00
2023-02-27T00:46:10.540Z,100.00
2023-02-27T00:48:38.842Z,100.00
2023-02-27T00:51:07.365Z,100.00
2023-02-27T00:53:37.123Z,100.00
2023-02-27T00:56:05.893Z,100.00
2023-02-27T00:58:34.107Z,100.00
2023-02-27T01:01:02.486Z,100.00
2023-02-27T01:03:31.133Z,100.00
2023-02-27T01:05:59.470Z,100.00
2023-02-27T01:08:27.826Z,100.00
2023-02-27T01:10:58.079Z,100.00
2023-02-27T01:13:26.529Z,100.00
2023-02-27T01:15:54.888Z,100.00
2023-02-27T01:18:23.289Z,100.00
2023-02-27T01:20:53.788Z,100.00
2023-02-27T01:23:22.094Z,100.00
2023-02-27T01:25:51.118Z,100.00
2023-02-27T01:28:21.318Z,100.00
2023-02-27T01:30:49.542Z,100.00
2023-02-27T01:33:18.002Z,100.00
2023-02-27T01:35:47.075Z,100.00
2023-02-27T01:38:15.518Z,100.00
2023-02-27T01:40:44.246Z,100.00
2023-02-27T01:43:17.044Z,100.00
2023-02-27T01:45:48.961Z,100.00
2023-02-27T01:48:21.293Z,100.00
2023-02-27T01:50:54.598Z,100.00
2023-02-27T01:53:26.050Z,100.00
2023-02-27T01:55:57.249Z,100.00
2023-02-27T01:58:27.097Z,100.00
2023-02-27T02:00:57.199Z,100.00
2023-02-27T02:03:31.353Z,100.00
2023-02-27T02:06:03.108Z,100.00
2023-02-27T02:08:36.649Z,100.00
2023-02-27T02:11:06.023Z,100.00
2023-02-27T02:13:34.711Z,100.00
2023-02-27T02:16:20.338Z,100.00
2023-02-27T02:18:55.241Z,100.00
2023-02-27T02:21:54.452Z,100.00
2023-02-27T02:24:50.271Z,100.00
2023-02-27T02:27:31.914Z,100.00
2023-02-27T02:30:36.926Z,100.00
2023-02-27T02:33:45.693Z,100.00
2023-02-27T02:37:01.492Z,100.00
2023-02-27T02:40:13.997Z,100.00
2023-02-27T02:42:52.331Z,98.73
2023-02-27T02:45:29.318Z,99.79
2023-02-27T02:48:04.611Z,100.00
2023-02-27T02:50:40.855Z,100.00
2023-02-27T02:53:16.749Z,100.00
2023-02-27T02:55:50.766Z,100.00
2023-02-27T02:58:26.245Z,96.80
2023-02-27T03:01:01.377Z,98.93
2023-02-27T03:03:35.748Z,96.75
2023-02-27T03:06:09.857Z,97.59
2023-02-27T03:08:45.015Z,92.51
2023-02-27T03:11:15.177Z,91.90
2023-02-27T03:13:51.454Z,91.86
2023-02-27T03:16:27.699Z,91.12
2023-02-27T03:19:01.389Z,88.57
2023-02-27T03:21:36.498Z,88.14
2023-02-27T03:24:08.995Z,86.12
2023-02-27T03:26:43.812Z,87.79
2023-02-27T03:29:16.390Z,87.98
2023-02-27T03:31:51.187Z,91.55
2023-02-27T03:34:24.581Z,100.00
2023-02-27T03:37:01.866Z,85.32
2023-02-27T03:39:38.476Z,84.34
2023-02-27T03:42:17.048Z,82.96
2023-02-27T03:44:57.339Z,81.78
2023-02-27T03:47:25.933Z,84.29
2023-02-27T03:49:54.437Z,96.64
2023-02-27T03:52:25.071Z,98.66
2023-02-27T03:55:00.002Z,100.00
2023-02-27T03:57:30.531Z,100.00
2023-02-27T03:59:59.537Z,100.00
2023-02-27T04:02:29.138Z,100.00
2023-02-27T04:04:57.398Z,100.00
2023-02-27T04:07:36.189Z,100.00
2023-02-27T04:10:20.600Z,100.00
2023-02-27T04:13:10.625Z,100.00
2023-02-27T04:16:00.959Z,100.00
2023-02-27T04:18:45.083Z,100.00
2023-02-27T04:21:21.959Z,100.00
2023-02-27T04:23:59.179Z,99.22
2023-02-27T04:26:31.920Z,100.00
2023-02-27T04:29:07.540Z,100.00
2023-02-27T04:31:47.028Z,100.00
2023-02-27T04:34:20.147Z,100.00
2023-02-27T04:36:53.844Z,100.00
2023-02-27T04:39:28.642Z,100.00
2023-02-27T04:42:01.678Z,100.00
2023-02-27T04:44:34.972Z,100.00
2023-02-27T04:47:05.854Z,100.00
2023-02-27T04:49:37.679Z,97.42
2023-02-27T04:52:10.949Z,95.27
2023-02-27T04:54:43.674Z,96.19
2023-02-27T04:57:17.507Z,97.60
2023-02-27T04:59:52.474Z,100.00
2023-02-27T05:02:25.174Z,100.00
2023-02-27T05:04:58.231Z,100.00
2023-02-27T05:07:32.411Z,100.00
2023-02-27T05:10:04.336Z,100.00
2023-02-27T05:12:38.980Z,100.00
2023-02-27T05:15:14.244Z,100.00
2023-02-27T05:17:47.904Z,100.00
2023-02-27T05:20:18.675Z,100.00
2023-02-27T05:22:50.321Z,100.00
2023-02-27T05:25:28.403Z,100.00
2023-02-27T05:28:04.159Z,100.00
2023-02-27T05:30:38.307Z,100.00
2023-02-27T05:33:12.493Z,100.00
2023-02-27T05:35:47.919Z,100.00
2023-02-27T05:38:19.741Z,100.00
2023-02-27T05:40:52.624Z,100.00
2023-02-27T05:43:26.406Z,100.00
2023-02-27T05:46:01.082Z,100.00
2023-02-27T05:48:33.731Z,100.00
2023-02-27T05:51:03.746Z,100.00
2023-02-27T05:53:36.404Z,100.00
2023-02-27T05:56:07.886Z,100.00
2023-02-27T05:58:41.855Z,100.00
2023-02-27T06:01:13.229Z,100.00
2023-02-27T06:03:42.962Z,100.00
2023-02-27T06:06:16.321Z,100.00
2023-02-27T06:08:44.952Z,100.00
2023-02-27T06:11:13.395Z,100.00
2023-02-27T06:13:42.259Z,98.17
2023-02-27T06:16:13.885Z,98.83
2023-02-27T06:18:42.229Z,99.41
2023-02-27T06:21:10.466Z,93.16
2023-02-27T06:23:38.774Z,92.62
2023-02-27T06:26:07.258Z,93.11
2023-02-27T06:28:35.544Z,91.68
2023-02-27T06:31:03.892Z,89.85
2023-02-27T06:33:33.661Z,86.89
2023-02-27T06:36:02.028Z,86.75
2023-02-27T06:38:30.432Z,86.40
2023-02-27T06:40:59.016Z,87.37
2023-02-27T06:43:27.348Z,88.61
2023-02-27T06:45:56.187Z,85.92
2023-02-27T06:48:24.464Z,86.73
2023-02-27T06:50:56.434Z,83.32
2023-02-27T06:53:26.231Z,82.16
2023-02-27T06:55:54.673Z,80.34
2023-02-27T06:58:24.870Z,81.60
2023-02-27T07:00:53.201Z,80.57
2023-02-27T07:03:21.523Z,77.83
2023-02-27T07:05:49.763Z,79.65
2023-02-27T07:08:19.582Z,75.84
2023-02-27T07:10:49.269Z,78.08
2023-02-27T07:13:19.697Z,77.96
2023-02-27T07:15:48.545Z,74.89
2023-02-27T07:18:16.893Z,76.26
2023-02-27T07:20:45.389Z,73.94
2023-02-27T07:23:13.693Z,74.11
2023-02-27T07:25:43.311Z,76.06
2023-02-27T07:28:11.635Z,77.45
2023-02-27T07:30:39.997Z,78.25
2023-02-27T07:33:08.506Z,80.14
2023-02-27T07:35:36.845Z,81.54
2023-02-27T07:38:05.424Z,82.84
2023-02-27T07:40:33.729Z,85.77
2023-02-27T07:43:03.486Z,87.87
2023-02-27T07:45:31.886Z,88.13
2023-02-27T07:48:00.188Z,89.91
2023-02-27T07:50:28.552Z,89.38
2023-02-27T07:52:56.816Z,86.32
2023-02-27T07:55:25.038Z,87.28
2023-02-27T07:57:53.308Z,89.33
2023-02-27T08:00:23.596Z,91.80
2023-02-27T08:02:52.031Z,91.49
2023-02-27T08:05:20.726Z,88.91
2023-02-27T08:07:49.024Z,88.27
2023-02-27T08:10:17.444Z,87.32
2023-02-27T08:12:46.051Z,87.65
2023-02-27T08:15:14.702Z,86.55
2023-02-27T08:17:45.922Z,86.35
2023-02-27T08:20:15.092Z,83.68
2023-02-27T08:22:43.516Z,84.51
2023-02-27T08:25:12.533Z,82.99
2023-02-27T08:27:41.106Z,80.53
2023-02-27T08:30:11.474Z,79.55
2023-02-27T08:32:40.084Z,80.45
2023-02-27T08:35:10.997Z,78.18
2023-02-27T08:37:39.278Z,79.70
2023-02-27T08:40:11.210Z,78.97
2023-02-27T08:42:39.811Z,76.76
2023-02-27T08:45:09.433Z,76.14
2023-02-27T08:47:37.730Z,76.75
2023-02-27T08:50:07.328Z,75.20
2023-02-27T08:52:37.023Z,74.62
2023-02-27T08:55:06.157Z,74.52
2023-02-27T08:57:34.717Z,72.82
2023-02-27T09:00:06.219Z,73.29
2023-02-27T09:02:35.037Z,70.93
2023-02-27T09:05:03.432Z,70.80
2023-02-27T09:07:31.808Z,67.98
2023-02-27T09:10:01.665Z,65.53
2023-02-27T09:12:29.900Z,64.20
2023-02-27T09:14:58.238Z,62.02
2023-02-27T09:17:26.686Z,61.94
2023-02-27T09:19:57.254Z,62.27
2023-02-27T09:22:25.771Z,62.74
2023-02-27T09:24:54.054Z,60.10
2023-02-27T09:27:24.572Z,59.93
2023-02-27T09:29:56.449Z,61.26
2023-02-27T09:32:25.239Z,60.92
2023-02-27T09:34:53.715Z,61.07
2023-02-27T09:37:21.992Z,59.54
2023-02-27T09:39:50.398Z,59.18
2023-02-27T09:42:21.184Z,59.83
2023-02-27T09:44:53.115Z,59.34
2023-02-27T09:47:26.906Z,60.00
2023-02-27T09:50:02.054Z,59.70
2023-02-27T09:52:32.580Z,60.34
2023-02-27T09:55:01.063Z,59.73
2023-02-27T09:57:42.387Z,59.51
2023-02-27T10:00:30.985Z,58.74
2023-02-27T10:03:14.547Z,59.17
2023-02-27T10:05:50.060Z,59.43
2023-02-27T10:08:24.548Z,58.04
2023-02-27T10:11:00.495Z,54.60
2023-02-27T10:13:45.076Z,54.95
2023-02-27T10:16:19.341Z,55.41
2023-02-27T10:18:55.055Z,54.89
2023-02-27T10:21:27.450Z,55.82
2023-02-27T10:24:00.737Z,55.62
2023-02-27T10:26:31.252Z,55.33
2023-02-27T10:29:01.498Z,55.50
2023-02-27T10:31:34.855Z,56.02
2023-02-27T10:34:03.724Z,54.66
2023-02-27T10:36:34.632Z,53.92
2023-02-27T10:39:08.434Z,53.19
2023-02-27T10:41:37.909Z,52.86
2023-02-27T10:44:07.536Z,51.51
2023-02-27T10:46:39.063Z,49.97
2023-02-27T10:49:18.910Z,49.33
2023-02-27T10:51:48.788Z,47.18
2023-02-27T10:54:22.109Z,46.04
2023-02-27T10:56:52.723Z,46.44
2023-02-27T10:59:24.052Z,46.85
2023-02-27T11:01:56.395Z,46.80
2023-02-27T11:04:32.819Z,46.20
2023-02-27T11:07:04.797Z,45.69
2023-02-27T11:09:34.513Z,45.91
2023-02-27T11:12:19.310Z,45.27
2023-02-27T11:14:52.378Z,45.89
2023-02-27T11:17:30.546Z,46.51
2023-02-27T11:20:00.511Z,45.93
2023-02-27T11:22:30.487Z,45.00
2023-02-27T11:25:23.937Z,43.41
2023-02-27T11:27:52.700Z,42.17
2023-02-27T11:30:26.117Z,42.66
2023-02-27T11:32:58.058Z,41.69
2023-02-27T11:35:30.222Z,39.96
2023-02-27T11:38:01.492Z,36.74
2023-02-27T11:40:33.075Z,37.95
2023-02-27T11:43:06.285Z,39.23
2023-02-27T11:46:04.667Z,40.45
2023-02-27T11:48:31.328Z,42.31
2023-02-27T11:51:33.254Z,42.84
2023-02-27T11:54:25.070Z,44.31
2023-02-27T11:56:55.906Z,43.30
2023-02-27T11:59:34.047Z,43.69
2023-02-27T12:02:07.513Z,43.40
2023-02-27T12:04:46.358Z,43.70
2023-02-27T12:07:21.979Z,44.52
2023-02-27T12:09:57.826Z,43.57
2023-02-27T12:12:31.841Z,43.96
2023-02-27T12:15:11.222Z,45.42
2023-02-27T12:17:45.922Z,45.70
2023-02-27T12:20:29.343Z,46.50
2023-02-27T12:22:57.929Z,48.29
2023-02-27T12:25:38.396Z,48.19
2023-02-27T12:28:28.512Z,47.94
2023-02-27T12:31:08.781Z,47.98
2023-02-27T12:33:43.292Z,49.86
2023-02-27T12:36:14.724Z,50.55
2023-02-27T12:38:43.845Z,51.42
2023-02-27T12:41:37.998Z,49.52
2023-02-27T12:44:33.530Z,49.74
2023-02-27T12:47:14.100Z,49.65
2023-02-27T12:49:50.114Z,50.49
2023-02-27T12:52:27.752Z,51.42
2023-02-27T12:55:03.422Z,51.62
2023-02-27T12:57:50.755Z,51.67
2023-02-27T13:00:21.627Z,51.55
2023-02-27T13:03:06.521Z,52.08
2023-02-27T13:05:44.180Z,51.36
2023-02-27T13:08:29.495Z,51.66
2023-02-27T13:11:03.085Z,50.78
2023-02-27T13:13:37.666Z,50.43
2023-02-27T13:16:12.303Z,50.76
2023-02-27T13:18:46.701Z,50.18
2023-02-27T13:21:22.508Z,53.54
2023-02-27T13:24:06.996Z,60.80
2023-02-27T13:26:40.565Z,62.20
2023-02-27T13:29:14.407Z,62.79
2023-02-27T13:31:50.834Z,63.73
2023-02-27T13:34:27.082Z,61.69
2023-02-27T13:37:00.294Z,60.42
2023-02-27T13:39:56.118Z,59.11
2023-02-27T13:42:59.480Z,59.14
2023-02-27T13:45:57.004Z,58.13
2023-02-27T13:48:48.348Z,59.81
2023-02-27T13:51:49.844Z,60.46
2023-02-27T13:54:29.987Z,58.37
2023-02-27T13:57:21.518Z,57.73
2023-02-27T13:59:56.022Z,59.09
2023-02-27T14:02:36.611Z,59.61
2023-02-27T14:05:08.928Z,60.03
2023-02-27T14:07:55.284Z,61.93
2023-02-27T14:10:26.331Z,63.62
2023-02-27T14:12:59.054Z,65.13
2023-02-27T14:16:00.615Z,64.77
2023-02-27T14:18:51.458Z,64.87
2023-02-27T14:21:55.919Z,65.55
2023-02-27T14:24:33.888Z,67.68
2023-02-27T14:27:03.707Z,73.98
2023-02-27T14:29:36.447Z,81.68
2023-02-27T14:32:08.794Z,88.75
2023-02-27T14:34:39.521Z,86.78
2023-02-27T14:37:15.167Z,91.41
2023-02-27T14:39:43.534Z,93.61
2023-02-27T14:42:39.776Z,94.02
2023-02-27T14:45:20.087Z,91.07
2023-02-27T14:47:49.117Z,99.04
2023-02-27T14:50:35.256Z,97.08
2023-02-27T14:53:04.296Z,99.01
2023-02-27T14:55:33.474Z,99.93
2023-02-27T14:58:09.727Z,93.20
2023-02-27T15:00:42.449Z,96.71
2023-02-27T15:03:22.763Z,100.00
2023-02-27T15:05:52.990Z,100.00
2023-02-27T15:08:24.028Z,100.00
2023-02-27T15:10:54.284Z,100.00
2023-02-27T15:13:29.642Z,100.00
2023-02-27T15:16:21.770Z,97.91
2023-02-27T15:18:51.278Z,99.03
2023-02-27T15:21:20.955Z,100.00
2023-02-27T15:23:56.313Z,100.00
2023-02-27T15:26:25.846Z,100.00
2023-02-27T15:28:54.268Z,91.98
2023-02-27T15:31:29.555Z,91.12
2023-02-27T15:33:59.698Z,87.96
2023-02-27T15:36:31.179Z,86.08
2023-02-27T15:39:19.140Z,83.65
2023-02-27T15:41:51.759Z,85.78
2023-02-27T15:44:24.910Z,92.46
2023-02-27T15:46:55.594Z,88.81
2023-02-27T15:49:26.062Z,88.80
2023-02-27T15:52:02.239Z,86.66
2023-02-27T15:54:35.061Z,85.96
2023-02-27T15:57:06.936Z,92.21
2023-02-27T15:59:38.270Z,99.27
2023-02-27T16:02:17.525Z,100.00
2023-02-27T16:04:47.701Z,100.00
2023-02-27T16:07:20.792Z,100.00
2023-02-27T16:09:52.067Z,96.97
2023-02-27T16:12:29.123Z,94.07
2023-02-27T16:15:21.272Z,91.53
2023-02-27T16:18:03.152Z,94.11
2023-02-27T16:20:43.919Z,100.00
2023-02-27T16:23:21.732Z,100.00
2023-02-27T16:26:08.358Z,100.00
2023-02-27T16:28:43.187Z,100.00
2023-02-27T16:31:25.022Z,100.00
2023-02-27T16:33:56.572Z,100.00
2023-02-27T16:36:27.087Z,100.00
2023-02-27T16:38:56.212Z,100.00
2023-02-27T16:41:26.174Z,100.00
2023-02-27T16:43:55.040Z,100.00
2023-02-27T16:46:23.858Z,100.00
2023-02-27T16:48:56.120Z,100.00
2023-02-27T16:51:26.288Z,100.00
2023-02-27T16:53:55.772Z,100.00
2023-02-27T16:56:37.282Z,100.00
2023-02-27T16:59:06.560Z,100.00
2023-02-27T17:01:34.967Z,100.00
2023-02-27T17:04:10.840Z,100.00
2023-02-27T17:06:44.849Z,100.00
2023-02-27T17:09:13.255Z,100.00
2023-02-27T17:11:41.599Z,100.00
2023-02-27T17:14:09.921Z,100.00
2023-02-27T17:16:38.250Z,100.00
2023-02-27T17:19:08.408Z,100.00
2023-02-27T17:21:36.723Z,100.00
2023-02-27T17:24:06.283Z,100.00
2023-02-27T17:26:34.794Z,100.00
2023-02-27T17:29:03.898Z,100.00
2023-02-27T17:31:32.398Z,100.00
2023-02-27T17:34:03.194Z,100.00
2023-02-27T17:36:32.808Z,100.00
2023-02-27T17:39:01.998Z,100.00
2023-02-27T17:41:30.921Z,100.00
2023-02-27T17:44:01.898Z,100.00
2023-02-27T17:46:32.141Z,100.00
2023-02-27T17:49:01.396Z,100.00
2023-02-27T17:51:30.985Z,100.00
2023-02-27T17:54:02.196Z,100.00
2023-02-27T17:56:30.775Z,100.00
2023-02-27T17:58:59.478Z,100.00
2023-02-27T18:01:28.108Z,100.00
2023-02-27T18:03:57.287Z,100.00
2023-02-27T18:06:25.969Z,100.00
2023-02-27T18:08:54.457Z,100.00
2023-02-27T18:11:24.865Z,100.00
2023-02-27T18:13:53.350Z,100.00
2023-02-27T18:16:23.140Z,100.00
2023-02-27T18:18:51.607Z,100.00
2023-02-27T18:21:22.921Z,100.00
2023-02-27T18:23:52.933Z,100.00
2023-02-27T18:26:30.436Z,100.00
2023-02-27T18:29:00.755Z,100.00
2023-02-27T18:31:31.372Z,100.00
2023-02-27T18:33:59.680Z,100.00
2023-02-27T18:36:28.536Z,100.00
2023-02-27T18:38:57.018Z,100.00
2023-02-27T18:41:27.063Z,100.00
2023-02-27T18:43:55.590Z,100.00
2023-02-27T18:46:24.046Z,100.00
2023-02-27T18:48:52.634Z,100.00
2023-02-27T18:51:21.038Z,100.00
2023-02-27T18:53:53.965Z,100.00
2023-02-27T18:56:24.870Z,100.00
2023-02-27T18:58:57.596Z,100.00
2023-02-27T19:01:28.396Z,100.00
2023-02-27T19:04:03.554Z,100.00
2023-02-27T19:06:32.425Z,100.00
2023-02-27T19:09:00.800Z,100.00
2023-02-27T19:11:33.542Z,100.00
2023-02-27T19:14:03.978Z,100.00
2023-02-27T19:16:32.758Z,100.00
2023-02-27T19:19:03.254Z,100.00
2023-02-27T19:21:32.156Z,100.00
2023-02-27T19:24:00.835Z,100.00
2023-02-27T19:26:30.169Z,100.00
2023-02-27T19:28:58.651Z,100.00
2023-02-27T19:31:28.706Z,100.00
2023-02-27T19:33:57.079Z,100.00
2023-02-27T19:36:27.569Z,100.00
2023-02-27T19:38:56.901Z,100.00
2023-02-27T19:41:25.697Z,100.00
2023-02-27T19:43:54.614Z,100.00
2023-02-27T19:46:26.322Z,100.00
2023-02-27T19:48:59.233Z,100.00
2023-02-27T19:51:27.887Z,100.00
2023-02-27T19:53:56.428Z,100.00
2023-02-27T19:56:26.155Z,100.00
2023-02-27T19:58:55.194Z,100.00
2023-02-27T20:01:25.973Z,100.00
2023-02-27T20:03:56.603Z,100.00
2023-02-27T20:06:26.597Z,100.00
2023-02-27T20:08:55.771Z,100.00
2023-02-27T20:11:24.188Z,100.00
2023-02-27T20:13:53.394Z,100.00
2023-02-27T20:16:24.184Z,100.00
2023-02-27T20:18:53.331Z,100.00
2023-02-27T20:21:24.996Z,100.00
2023-02-27T20:23:53.954Z,100.00
2023-02-27T20:26:24.739Z,100.00
2023-02-27T20:28:54.745Z,100.00
2023-02-27T20:31:25.849Z,100.00
2023-02-27T20:33:54.569Z,100.00
2023-02-27T20:36:24.871Z,100.00
2023-02-27T20:38:53.213Z,100.00
2023-02-27T20:41:23.551Z,100.00
2023-02-27T20:43:51.816Z,100.00
2023-02-27T20:46:22.069Z,100.00
2023-02-27T20:48:51.128Z,100.00
2023-02-27T20:51:21.294Z,100.00
2023-02-27T20:53:52.778Z,100.00
2023-02-27T20:56:22.646Z,100.00
2023-02-27T20:58:50.922Z,100.00
2023-02-27T21:01:19.963Z,100.00
2023-02-27T21:03:50.520Z,100.00
2023-02-27T21:06:19.723Z,100.00
2023-02-27T21:08:52.868Z,100.00
2023-02-27T21:11:24.594Z,100.00
2023-02-27T21:13:52.897Z,100.00
2023-02-27T21:16:22.281Z,100.00
2023-02-27T21:18:51.613Z,100.00
2023-02-27T21:21:24.134Z,100.00
2023-02-27T21:23:54.366Z,100.00
2023-02-27T21:26:25.182Z,100.00
2023-02-27T21:28:54.928Z,100.00
2023-02-27T21:31:25.702Z,100.00
2023-02-27T21:33:56.569Z,100.00
2023-02-27T21:36:29.902Z,100.00
2023-02-27T21:39:00.882Z,100.00
2023-02-27T21:41:30.887Z,100.00
2023-02-27T21:44:00.438Z,100.00
2023-02-27T21:46:29.779Z,100.00
2023-02-27T21:48:58.344Z,100.00
2023-02-27T21:51:39.629Z,100.00
2023-02-27T21:54:13.032Z,100.00
2023-02-27T21:56:42.321Z,100.00
2023-02-27T21:59:10.812Z,100.00
2023-02-27T22:01:40.316Z,100.00
2023-02-27T22:04:09.061Z,100.00
2023-02-27T22:06:37.398Z,100.00
2023-02-27T22:09:08.083Z,100.00
2023-02-27T22:11:37.927Z,100.00
2023-02-27T22:14:08.348Z,100.00
2023-02-27T22:16:36.744Z,100.00
2023-02-27T22:19:07.744Z,100.00
2023-02-27T22:21:37.604Z,100.00
2023-02-27T22:24:06.487Z,100.00
2023-02-27T22:26:35.403Z,100.00
2023-02-27T22:29:06.514Z,100.00
2023-02-27T22:31:37.913Z,100.00
2023-02-27T22:34:08.081Z,100.00
2023-02-27T22:36:37.689Z,100.00
2023-02-27T22:39:07.691Z,100.00
2023-02-27T22:41:39.617Z,100.00
2023-02-27T22:44:10.810Z,100.00
2023-02-27T22:46:41.295Z,100.00
2023-02-27T22:49:12.737Z,100.00
2023-02-27T22:51:41.038Z,100.00
2023-02-27T22:54:10.293Z,100.00
2023-02-27T22:56:39.085Z,100.00
2023-02-27T22:59:09.321Z,100.00
2023-02-27T23:01:39.096Z,100.00
2023-02-27T23:04:11.513Z,100.00
2023-02-27T23:06:42.072Z,100.00
2023-02-27T23:09:13.678Z,100.00
2023-02-27T23:11:42.174Z,100.00
2023-02-27T23:14:13.425Z,100.00
2023-02-27T23:16:45.699Z,100.00
2023-02-27T23:19:16.275Z,100.00
2023-02-27T23:21:44.717Z,100.00
2023-02-27T23:24:15.051Z,100.00
2023-02-27T23:26:45.736Z,100.00
2023-02-27T23:29:16.046Z,100.00
2023-02-27T23:31:44.683Z,100.00
2023-02-27T23:34:13.022Z,100.00
2023-02-27T23:36:41.587Z,100.00
2023-02-27T23:39:10.139Z,100.00
2023-02-27T23:41:38.447Z,100.00
2023-02-27T23:44:06.912Z,100.00
2023-02-27T23:46:36.640Z,100.00
2023-02-27T23:49:04.952Z,100.00
2023-02-27T23:51:33.792Z,100.00
2023-02-27T23:54:02.308Z,100.00
2023-02-27T23:56:31.881Z,100.00
2023-02-27T23:59:02.369Z,100.00
